Time;durP1;ratioP1;P1;durP2;ratioP2;P2;SDS_P1;SDS_P2;PMS_P1;PMS_P2;Temp;Humidity;BMP_temperature;BMP_pressure;BME280_temperature;BME280_humidity;BME280_pressure;Samples;Min_cycle;Max_cycle;Signal;HPM_P1;HPM_P2
2022/07/03 00:00:37;;;;;;;7.38;3.55;;;;;;;20.41;88.12;98294.41;5050366;28;20044;-76
2022/07/03 00:03:03;;;;;;;5.93;3.50;;;;;;;20.30;89.14;98294.88;5053604;28;21570;-75
2022/07/03 00:05:28;;;;;;;6.63;3.38;;;;;;;20.22;89.46;98293.03;5051777;28;20082;-74
2022/07/03 00:07:54;;;;;;;7.68;3.70;;;;;;;20.14;90.49;98288.38;5051013;28;20025;-75
2022/07/03 00:10:19;;;;;;;10.52;4.13;;;;;;;20.20;90.00;98295.31;5050869;28;20021;-76
2022/07/03 00:12:45;;;;;;;8.05;4.82;;;;;;;20.18;90.98;98288.50;5050390;28;20045;-75
2022/07/03 00:15:10;;;;;;;5.68;3.47;;;;;;;20.11;91.53;98285.53;5050488;28;20031;-73
2022/07/03 00:17:36;;;;;;;6.47;4.05;;;;;;;20.15;92.08;98292.78;5050721;28;20503;-76
2022/07/03 00:20:02;;;;;;;5.75;3.90;;;;;;;20.25;91.39;98295.09;5050613;28;20029;-75
2022/07/03 00:22:30;;;;;;;7.18;3.70;;;;;;;20.28;90.64;98296.38;5054431;28;20029;-75
2022/07/03 00:25:06;;;;;;;10.15;4.53;;;;;;;20.30;90.34;98300.44;5054596;28;20025;-74
2022/07/03 00:27:33;;;;;;;9.10;4.00;;;;;;;20.29;89.95;98304.38;5054166;28;20037;-75
2022/07/03 00:30:00;;;;;;;7.30;3.45;;;;;;;20.32;89.77;98302.06;5054534;28;20107;-74
2022/07/03 00:32:27;;;;;;;5.60;3.58;;;;;;;20.41;89.13;98292.44;5053131;28;20017;-74
2022/07/03 00:34:54;;;;;;;5.03;3.13;;;;;;;20.31;89.21;98292.91;5054417;28;20029;-74
2022/07/03 00:37:21;;;;;;;12.80;3.95;;;;;;;20.19;90.15;98290.13;5054432;28;20032;-74
2022/07/03 00:39:48;;;;;;;5.00;3.63;;;;;;;20.18;90.86;98297.66;5055035;28;20396;-74
2022/07/03 00:42:14;;;;;;;6.85;3.83;;;;;;;20.04;91.49;98285.28;5054210;28;20032;-73
2022/07/03 00:44:52;;;;;;;7.45;3.90;;;;;;;20.16;91.22;98293.59;5054138;28;20496;-75
2022/07/03 00:47:20;;;;;;;6.57;3.55;;;;;;;20.23;90.62;98294.66;5055803;28;20029;-75
2022/07/03 00:49:48;;;;;;;8.05;3.53;;;;;;;20.32;89.91;98286.19;5059217;28;20029;-76
2022/07/03 00:52:16;;;;;;;5.53;3.33;;;;;;;20.32;89.44;98282.59;5058508;28;20076;-76
2022/07/03 00:54:57;;;;;;;8.05;3.33;;;;;;;20.26;89.70;98291.19;5056493;28;20053;-75
2022/07/03 00:57:26;;;;;;;7.53;3.67;;;;;;;20.20;90.42;98278.66;5054204;28;20100;-74
2022/07/03 00:59:52;;;;;;;5.60;3.30;;;;;;;20.19;91.05;98282.59;5054355;28;20021;-74
2022/07/03 01:02:43;;;;;;;4.55;3.20;;;;;;;20.18;90.90;98280.97;5054242;28;20107;-75
2022/07/03 01:05:29;;;;;;;9.70;3.90;;;;;;;20.15;91.47;98276.13;5053818;28;20043;-73
2022/07/03 01:08:11;;;;;;;5.90;3.00;;;;;;;20.15;91.18;98281.69;5052581;28;20082;-73
2022/07/03 01:11:10;;;;;;;6.05;3.38;;;;;;;20.08;91.99;98277.88;5054053;28;20112;-73
2022/07/03 01:13:54;;;;;;;4.95;3.33;;;;;;;19.98;93.01;98276.41;5053476;28;20041;-74
2022/07/03 01:16:45;;;;;;;6.13;3.45;;;;;;;19.82;93.66;98277.44;5052463;28;20037;-74
2022/07/03 01:19:11;;;;;;;4.95;3.30;;;;;;;19.80;94.00;98269.44;5053815;28;20106;-74
2022/07/03 01:22:26;;;;;;;6.57;3.58;;;;;;;19.72;95.68;98262.06;5053788;28;20460;-75
2022/07/03 01:25:16;;;;;;;4.57;3.53;;;;;;;19.86;94.42;98261.72;5047875;28;20051;-74
2022/07/03 01:28:13;;;;;;;4.20;3.33;;;;;;;19.67;96.00;98267.84;5053513;28;20024;-74
2022/07/03 01:30:50;;;;;;;3.80;3.05;;;;;;;19.67;96.44;98265.84;5053510;28;20032;-74
2022/07/03 01:33:21;;;;;;;4.40;3.30;;;;;;;19.78;96.01;98255.94;5052543;28;20028;-75
2022/07/03 01:36:00;;;;;;;5.40;3.35;;;;;;;19.65;96.95;98247.94;5053369;28;20024;-75
2022/07/03 01:38:28;;;;;;;4.55;3.20;;;;;;;19.59;97.65;98247.38;5053763;28;20033;-75
2022/07/03 01:40:54;;;;;;;5.18;3.45;;;;;;;19.72;96.88;98250.94;5053364;28;20040;-73
2022/07/03 01:43:34;;;;;;;5.13;3.33;;;;;;;19.81;95.93;98242.50;5053197;28;20039;-74
2022/07/03 01:46:01;;;;;;;5.93;3.25;;;;;;;19.75;96.31;98244.69;5053054;28;20107;-73
2022/07/03 01:48:28;;;;;;;5.70;3.08;;;;;;;19.80;95.62;98244.47;5051871;28;20370;-75
2022/07/03 01:50:55;;;;;;;5.65;3.53;;;;;;;19.69;96.28;98248.88;5053068;28;20392;-75
2022/07/03 01:53:24;;;;;;;6.15;3.38;;;;;;;19.49;98.22;98253.38;5053017;28;20478;-74
2022/07/03 01:55:50;;;;;;;6.63;3.63;;;;;;;19.36;100.00;98251.69;5051780;28;20041;-75
2022/07/03 01:58:16;;;;;;;8.27;4.63;;;;;;;19.31;100.00;98245.59;5053003;28;20033;-75
2022/07/03 02:00:49;;;;;;;4.72;3.63;;;;;;;19.22;100.00;98246.50;5052723;28;20025;-75
2022/07/03 02:03:25;;;;;;;4.63;3.30;;;;;;;19.27;100.00;98246.28;5052777;28;20049;-74
2022/07/03 02:05:59;;;;;;;5.97;3.50;;;;;;;19.37;100.00;98235.88;5052761;28;20106;-73
2022/07/03 02:08:44;;;;;;;6.40;3.65;;;;;;;19.21;100.00;98242.09;5053062;28;20112;-75
2022/07/03 02:11:18;;;;;;;5.90;3.60;;;;;;;19.24;100.00;98235.88;5052795;28;20044;-76
2022/07/03 02:14:15;;;;;;;5.95;4.28;;;;;;;19.21;100.00;98230.19;5052593;28;20481;-75
2022/07/03 02:16:53;;;;;;;7.47;3.53;;;;;;;19.10;100.00;98224.31;5053002;28;20029;-74
2022/07/03 02:19:26;;;;;;;7.07;3.38;;;;;;;18.90;100.00;98230.72;5058044;28;20037;-75
2022/07/03 02:21:56;;;;;;;5.47;3.22;;;;;;;18.81;100.00;98221.69;5054239;28;20025;-73
2022/07/03 02:24:27;;;;;;;5.85;3.17;;;;;;;18.70;100.00;98234.38;5070015;28;20112;-75
2022/07/03 02:27:25;;;;;;;4.53;3.40;;;;;;;18.63;100.00;98231.34;5052587;28;20076;-76
2022/07/03 02:29:59;;;;;;;8.18;3.88;;;;;;;18.58;100.00;98228.75;5052229;28;20029;-74
2022/07/03 02:32:27;;;;;;;5.40;3.10;;;;;;;18.51;100.00;98234.06;5062363;28;20094;-77
2022/07/03 02:35:04;;;;;;;4.35;3.25;;;;;;;18.57;100.00;98225.19;5071910;28;20024;-76
2022/07/03 02:37:34;;;;;;;6.82;3.40;;;;;;;18.62;100.00;98235.25;5071982;28;20424;-74
2022/07/03 02:40:06;;;;;;;6.57;3.38;;;;;;;18.66;100.00;98225.13;5072604;28;20028;-73
2022/07/03 02:42:45;;;;;;;5.03;3.25;;;;;;;18.60;100.00;98220.94;5072038;28;20028;-75
2022/07/03 02:45:11;;;;;;;5.97;3.20;;;;;;;18.75;100.00;98223.06;5072006;28;20063;-74
2022/07/03 02:47:48;;;;;;;7.00;3.28;;;;;;;18.84;100.00;98232.09;5055241;28;20139;-73
2022/07/03 02:50:20;;;;;;;4.57;3.45;;;;;;;18.85;100.00;98233.72;5052147;28;20025;-75
2022/07/03 02:52:54;;;;;;;4.72;3.10;;;;;;;18.78;100.00;98227.91;5051793;28;20521;-75
2022/07/03 02:55:45;;;;;;;7.00;3.58;;;;;;;18.81;100.00;98237.50;5051664;28;20021;-74
2022/07/03 02:58:19;;;;;;;6.78;3.38;;;;;;;18.77;100.00;98231.84;5051327;28;20021;-75
2022/07/03 03:00:57;;;;;;;8.70;3.13;;;;;;;18.73;100.00;98230.91;5051357;28;20036;-75
2022/07/03 03:03:27;;;;;;;4.40;3.40;;;;;;;18.70;100.00;98221.31;5051300;28;20440;-73
2022/07/03 03:05:55;;;;;;;5.60;3.65;;;;;;;18.53;100.00;98231.75;5051160;28;20393;-74
2022/07/03 03:08:43;;;;;;;5.05;3.28;;;;;;;18.55;100.00;98224.72;5049904;28;20025;-74
2022/07/03 03:11:33;;;;;;;6.75;3.60;;;;;;;18.52;100.00;98232.91;5051651;28;20378;-74
2022/07/03 03:14:03;;;;;;;6.18;3.63;;;;;;;18.50;100.00;98226.91;5040539;28;20124;-74
2022/07/03 03:16:28;;;;;;;5.28;3.80;;;;;;;18.52;100.00;98224.59;5051353;28;20029;-73
2022/07/03 03:18:53;;;;;;;4.72;3.40;;;;;;;18.53;100.00;98228.97;5051441;28;20029;-74
2022/07/03 03:21:19;;;;;;;5.72;3.58;;;;;;;18.47;100.00;98230.31;5051529;28;20111;-74
2022/07/03 03:23:52;;;;;;;5.80;3.65;;;;;;;18.53;100.00;98231.75;5051281;28;20025;-74
2022/07/03 03:26:22;;;;;;;5.22;3.45;;;;;;;18.64;100.00;98236.53;5049862;28;20474;-74
2022/07/03 03:28:49;;;;;;;7.45;3.72;;;;;;;18.78;100.00;98240.97;5051186;28;20071;-73
2022/07/03 03:31:15;;;;;;;5.68;3.22;;;;;;;18.93;100.00;98229.22;5050290;28;20025;-73
2022/07/03 03:33:43;;;;;;;8.43;3.47;;;;;;;19.40;100.00;98232.44;5049979;28;20029;-74
2022/07/03 03:36:10;;;;;;;5.95;3.28;;;;;;;19.94;100.00;98225.47;5049666;28;20021;-76
2022/07/03 03:38:36;;;;;;;4.45;3.55;;;;;;;20.43;96.85;98230.91;5050479;28;20373;-74
2022/07/03 03:41:03;;;;;;;4.50;3.13;;;;;;;20.78;92.90;98226.38;5051532;28;20108;-74
2022/07/03 03:43:29;;;;;;;4.72;3.55;;;;;;;21.11;89.39;98228.91;5050776;28;20433;-74
2022/07/03 03:45:54;;;;;;;8.43;3.35;;;;;;;21.49;86.18;98228.28;5051014;28;20083;-74
2022/07/03 03:48:20;;;;;;;6.05;3.17;;;;;;;22.06;82.87;98236.00;5050926;28;20090;-75
2022/07/03 03:50:45;;;;;;;4.28;3.15;;;;;;;22.05;81.49;98231.63;5051052;28;20029;-75
2022/07/03 03:53:12;;;;;;;6.63;3.28;;;;;;;22.20;80.62;98228.78;5050940;28;20029;-74
2022/07/03 03:55:37;;;;;;;5.28;3.50;;;;;;;22.72;77.12;98239.47;5050260;28;20091;-74
2022/07/03 03:58:04;;;;;;;7.97;3.33;;;;;;;22.91;75.91;98230.25;5050606;28;20366;-78
2022/07/03 04:00:30;;;;;;;5.20;3.20;;;;;;;23.16;74.01;98239.91;5051278;28;20478;-74
2022/07/03 04:02:55;;;;;;;7.88;3.03;;;;;;;23.19;74.04;98239.16;5050527;28;20036;-76
2022/07/03 04:05:21;;;;;;;6.75;3.53;;;;;;;23.78;70.84;98237.78;5050528;28;20033;-75
2022/07/03 04:07:46;;;;;;;6.63;3.60;;;;;;;24.17;68.46;98239.25;5050718;28;20081;-75
2022/07/03 04:10:12;;;;;;;7.68;3.63;;;;;;;24.02;69.05;98242.16;5050691;28;20032;-75
2022/07/03 04:12:37;;;;;;;8.70;2.90;;;;;;;23.12;72.32;98236.25;5050521;28;20571;-75
2022/07/03 04:15:03;;;;;;;4.63;3.20;;;;;;;22.85;74.49;98234.53;5050944;28;20041;-75
2022/07/03 04:17:29;;;;;;;8.70;3.17;;;;;;;22.81;73.85;98240.03;5050818;28;20032;-76
2022/07/03 04:19:54;;;;;;;5.78;3.70;;;;;;;23.71;70.89;98241.28;5049330;28;20025;-74
2022/07/03 04:22:19;;;;;;;5.47;3.08;;;;;;;23.91;68.86;98244.78;5049193;28;20025;-74
2022/07/03 04:24:45;;;;;;;5.13;3.70;;;;;;;23.97;68.48;98255.28;5050204;28;20485;-74
2022/07/03 04:27:10;;;;;;;8.90;3.38;;;;;;;24.11;67.99;98239.91;5049967;28;20055;-74
2022/07/03 04:29:35;;;;;;;6.03;3.33;;;;;;;23.43;70.42;98255.59;5050494;28;20040;-76
2022/07/03 04:32:01;;;;;;;4.88;3.78;;;;;;;22.40;75.70;98240.75;5050946;28;20029;-75
2022/07/03 04:34:26;;;;;;;7.35;3.33;;;;;;;21.65;79.85;98242.97;5054651;28;20582;-75
2022/07/03 04:36:52;;;;;;;6.20;3.60;;;;;;;20.86;84.96;98232.94;5052814;28;20132;-75
2022/07/03 04:39:17;;;;;;;4.00;2.58;;;;;;;20.98;84.19;98247.59;5050704;28;20033;-75
2022/07/03 04:41:42;;;;;;;5.50;3.38;;;;;;;20.71;86.31;98240.06;5050260;28;20112;-74
2022/07/03 04:44:08;;;;;;;5.47;3.05;;;;;;;20.71;86.75;98243.66;5050341;28;20029;-74
2022/07/03 04:46:33;;;;;;;8.05;3.45;;;;;;;20.93;85.54;98238.69;5050210;28;20029;-75
2022/07/03 04:48:58;;;;;;;4.57;3.40;;;;;;;20.88;85.78;98234.19;5050197;28;20111;-73
2022/07/03 04:51:24;;;;;;;5.30;3.10;;;;;;;20.97;85.52;98240.41;5050305;28;20111;-74
2022/07/03 04:53:49;;;;;;;6.25;3.58;;;;;;;21.12;85.42;98225.75;5049981;28;20124;-76
2022/07/03 04:56:15;;;;;;;5.43;3.13;;;;;;;21.25;83.89;98232.84;5048819;28;20060;-74
2022/07/03 04:58:40;;;;;;;6.35;3.35;;;;;;;21.47;82.25;98228.63;5048570;28;20029;-74
2022/07/03 05:01:05;;;;;;;7.70;3.90;;;;;;;21.29;82.68;98225.41;5050667;28;20025;-75
2022/07/03 05:03:31;;;;;;;7.95;3.88;;;;;;;21.22;82.99;98230.78;5049975;28;20102;-75
2022/07/03 05:05:58;;;;;;;7.43;3.30;;;;;;;21.10;84.15;98235.63;5050054;28;20009;-74
2022/07/03 05:08:23;;;;;;;5.90;3.42;;;;;;;21.19;83.19;98225.13;5050470;28;20060;-75
2022/07/03 05:10:48;;;;;;;4.18;3.40;;;;;;;21.60;81.44;98234.91;5054111;28;20465;-76
2022/07/03 05:13:14;;;;;;;4.22;3.22;;;;;;;21.46;81.75;98243.69;5053705;28;20527;-76
2022/07/03 05:15:39;;;;;;;6.82;3.45;;;;;;;21.27;82.52;98236.06;5053898;28;20025;-75
2022/07/03 05:18:04;;;;;;;6.35;3.42;;;;;;;21.36;81.99;98241.47;5053854;28;20054;-75
2022/07/03 05:20:30;;;;;;;5.28;3.33;;;;;;;21.58;81.53;98242.81;5053692;28;20029;-76
2022/07/03 05:22:57;;;;;;;5.18;3.20;;;;;;;21.71;80.38;98238.72;5053565;28;20113;-76
2022/07/03 05:25:23;;;;;;;5.07;3.10;;;;;;;22.00;79.31;98243.03;5053345;28;20032;-77
2022/07/03 05:27:55;;;;;;;5.15;3.10;;;;;;;22.19;77.92;98245.88;5053278;28;20025;-76
2022/07/03 05:30:25;;;;;;;5.88;3.60;;;;;;;22.13;77.61;98248.13;5060046;28;20040;-76
2022/07/03 05:32:52;;;;;;;7.22;4.03;;;;;;;21.91;78.85;98240.47;5060105;28;20556;-76
2022/07/03 05:35:17;;;;;;;9.68;5.90;;;;;;;21.93;78.89;98243.69;5070946;28;20017;-76
2022/07/03 05:37:43;;;;;;;4.85;4.20;;;;;;;21.78;79.31;98244.47;5071915;28;20424;-76
2022/07/03 05:40:08;;;;;;;4.82;3.40;;;;;;;22.16;77.92;98244.63;5067693;28;20039;-76
2022/07/03 05:42:34;;;;;;;6.22;3.22;;;;;;;21.92;78.55;98247.66;5067997;28;20036;-74
2022/07/03 05:45:00;;;;;;;5.00;4.00;;;;;;;21.74;79.80;98240.81;5069373;28;20459;-75
2022/07/03 05:47:25;;;;;;;9.30;4.30;;;;;;;21.45;81.47;98255.22;5072777;28;20432;-77
2022/07/03 05:49:50;;;;;;;5.78;4.13;;;;;;;21.86;79.17;98246.28;5072409;28;20542;-74
2022/07/03 05:52:19;;;;;;;7.70;5.35;;;;;;;22.13;78.00;98245.34;5071963;28;20020;-74
2022/07/03 05:54:44;;;;;;;8.27;4.35;;;;;;;22.14;77.54;98249.75;5071610;28;20020;-74
2022/07/03 05:57:09;;;;;;;5.88;3.80;;;;;;;22.28;77.00;98250.06;5071703;28;20103;-73
2022/07/03 05:59:35;;;;;;;10.15;4.63;;;;;;;22.51;75.82;98252.13;5071738;28;20048;-76
2022/07/03 06:02:00;;;;;;;8.52;4.63;;;;;;;23.14;73.11;98255.44;5071977;28;20489;-76
2022/07/03 06:04:26;;;;;;;6.68;4.10;;;;;;;23.01;72.58;98254.78;5071420;28;20488;-76
2022/07/03 06:06:51;;;;;;;9.07;3.80;;;;;;;22.94;73.28;98263.00;5071630;28;20039;-74
2022/07/03 06:09:17;;;;;;;8.50;4.22;;;;;;;22.61;74.88;98252.38;5071475;28;20016;-73
2022/07/03 06:11:43;;;;;;;8.23;4.28;;;;;;;22.75;74.01;98263.84;5071666;28;20036;-73
2022/07/03 06:14:08;;;;;;;12.70;4.35;;;;;;;23.05;72.23;98261.25;5070549;28;20408;-75
2022/07/03 06:16:34;;;;;;;6.32;3.83;;;;;;;22.78;73.34;98262.28;5071486;28;20041;-75
2022/07/03 06:19:00;;;;;;;6.55;4.00;;;;;;;22.79;73.14;98253.56;5071028;28;20021;-75
2022/07/03 06:21:25;;;;;;;5.32;3.40;;;;;;;24.71;65.77;98257.53;5071227;28;20062;-75
2022/07/03 06:23:51;;;;;;;8.38;3.75;;;;;;;25.16;62.97;98262.88;5071267;28;20024;-74
2022/07/03 06:26:16;;;;;;;6.03;3.60;;;;;;;25.00;63.04;98259.50;5070845;28;20058;-75
2022/07/03 06:28:42;;;;;;;6.43;3.78;;;;;;;24.71;63.39;98251.94;5071458;28;20064;-75
2022/07/03 06:31:08;;;;;;;5.38;3.40;;;;;;;24.61;63.99;98261.00;5071432;28;20409;-76
2022/07/03 06:33:33;;;;;;;5.47;3.85;;;;;;;24.35;64.78;98259.06;5071787;28;20043;-75
2022/07/03 06:35:58;;;;;;;5.05;3.00;;;;;;;24.22;65.65;98257.66;5072162;28;20872;-73
2022/07/03 06:38:24;;;;;;;6.90;3.92;;;;;;;24.09;65.98;98259.06;5072158;28;20020;-74
2022/07/03 06:40:49;;;;;;;5.80;3.88;;;;;;;24.43;64.50;98258.75;5065042;28;20111;-74
2022/07/03 06:43:14;;;;;;;6.07;3.50;;;;;;;24.28;64.73;98256.97;5069495;28;20055;-74
2022/07/03 06:45:40;;;;;;;5.93;3.97;;;;;;;23.94;66.00;98258.81;5070749;28;20567;-74
2022/07/03 06:48:05;;;;;;;11.32;3.53;;;;;;;23.76;67.20;98262.53;5070850;28;20049;-74
2022/07/03 06:50:31;;;;;;;5.68;3.47;;;;;;;24.01;66.40;98260.94;5072310;28;20027;-75
2022/07/03 06:52:56;;;;;;;6.18;4.25;;;;;;;24.02;65.78;98256.97;5074000;28;20024;-75
2022/07/03 06:55:21;;;;;;;6.45;4.10;;;;;;;23.65;66.92;98242.00;5072025;28;20021;-75
2022/07/03 06:57:47;;;;;;;6.95;3.78;;;;;;;24.17;65.15;98244.03;5067392;28;20029;-75
2022/07/03 07:00:12;;;;;;;5.72;3.58;;;;;;;24.53;63.40;98246.91;5067058;28;20131;-74
2022/07/03 07:02:38;;;;;;;4.50;3.47;;;;;;;24.25;64.04;98243.72;5065355;28;20091;-74
2022/07/03 07:05:04;;;;;;;6.10;3.40;;;;;;;24.72;62.54;98245.13;5064912;28;20028;-74
2022/07/03 07:07:29;;;;;;;7.03;3.17;;;;;;;24.79;62.15;98248.03;5069027;28;20071;-73
2022/07/03 07:09:55;;;;;;;7.78;3.30;;;;;;;25.22;60.58;98250.13;5070815;28;20060;-75
2022/07/03 07:12:20;;;;;;;5.75;3.25;;;;;;;25.11;59.16;98238.03;5071293;28;20522;-76
2022/07/03 07:14:45;;;;;;;6.93;4.03;;;;;;;25.05;58.42;98245.16;5071295;28;20112;-75
2022/07/03 07:17:11;;;;;;;7.80;3.38;;;;;;;25.05;58.14;98236.78;5070790;28;20032;-74
2022/07/03 07:19:36;;;;;;;4.40;2.90;;;;;;;25.25;56.93;98243.75;5071039;28;20114;-75
2022/07/03 07:22:02;;;;;;;5.43;3.15;;;;;;;25.37;56.28;98239.91;5071928;28;20358;-75
2022/07/03 07:24:28;;;;;;;4.15;3.00;;;;;;;25.37;55.54;98243.47;5071827;28;20017;-74
2022/07/03 07:26:54;;;;;;;6.97;2.75;;;;;;;25.26;55.71;98248.19;5071415;28;20048;-74
2022/07/03 07:29:19;;;;;;;4.43;2.60;;;;;;;25.71;54.33;98223.81;5071307;28;20408;-73
2022/07/03 07:31:45;;;;;;;8.23;3.25;;;;;;;26.23;53.55;98236.59;5070922;28;20028;-75
2022/07/03 07:34:11;;;;;;;4.70;3.28;;;;;;;25.71;53.94;98238.63;5071274;28;20032;-75
2022/07/03 07:36:37;;;;;;;9.18;2.95;;;;;;;26.10;52.37;98238.91;5071183;28;20044;-75
2022/07/03 07:39:02;;;;;;;4.18;2.58;;;;;;;26.20;51.90;98246.63;5070946;28;20387;-75
2022/07/03 07:41:28;;;;;;;3.50;2.50;;;;;;;25.88;52.01;98225.91;5071082;28;20518;-75
2022/07/03 07:43:53;;;;;;;4.78;2.75;;;;;;;26.12;51.57;98225.31;5071465;28;20028;-74
2022/07/03 07:46:18;;;;;;;6.10;2.80;;;;;;;26.50;50.34;98223.94;5070887;28;20472;-75
2022/07/03 07:48:44;;;;;;;4.53;2.50;;;;;;;26.99;48.86;98226.16;5071225;28;20128;-74
2022/07/03 07:51:10;;;;;;;4.93;3.10;;;;;;;27.12;46.49;98228.19;5071732;28;20025;-74
2022/07/03 07:53:36;;;;;;;4.05;2.63;;;;;;;27.31;46.71;98223.41;5070938;28;20034;-74
2022/07/03 07:56:02;;;;;;;3.38;2.53;;;;;;;28.11;44.91;98227.47;5071292;28;20024;-73
2022/07/03 07:58:28;;;;;;;5.25;2.85;;;;;;;28.22;43.44;98230.28;5070719;28;20034;-73
2022/07/03 08:06:21;;;;;;;3.80;2.55;;;;;;;32.63;33.50;98234.03;5072242;28;20047;-75
2022/07/03 08:08:46;;;;;;;3.17;2.47;;;;;;;32.98;32.74;98229.66;5069999;28;20540;-74
2022/07/03 08:11:12;;;;;;;4.25;2.50;;;;;;;33.75;31.42;98232.78;5079247;28;20043;-76
2022/07/03 08:13:37;;;;;;;4.10;2.20;;;;;;;32.89;32.80;98235.13;5079222;28;20409;-75
2022/07/03 08:16:03;;;;;;;6.60;2.60;;;;;;;34.17;31.52;98227.28;5080088;28;20036;-75
2022/07/03 08:18:28;;;;;;;4.25;2.33;;;;;;;36.59;27.75;98239.31;5071623;28;20096;-75
2022/07/03 08:20:53;;;;;;;5.40;2.40;;;;;;;36.51;27.74;98235.88;5070646;28;20027;-75
2022/07/03 08:23:19;;;;;;;7.50;3.25;;;;;;;38.69;24.70;98234.03;5070468;28;20490;-74
2022/07/03 08:25:44;;;;;;;6.82;2.40;;;;;;;38.31;25.14;98233.69;5070637;28;20028;-76
2022/07/03 08:28:09;;;;;;;3.83;2.55;;;;;;;38.41;24.74;98230.38;5070530;28;20032;-74
2022/07/03 08:30:35;;;;;;;2.85;2.25;;;;;;;38.11;24.31;98233.34;5071428;28;20372;-75
2022/07/03 08:33:00;;;;;;;5.03;2.47;;;;;;;36.76;26.10;98232.94;5071038;28;20075;-75
2022/07/03 08:35:27;;;;;;;4.85;2.40;;;;;;;37.23;25.48;98223.44;5070028;28;20412;-74
2022/07/03 08:37:53;;;;;;;4.45;2.47;;;;;;;36.45;26.42;98223.47;5070273;28;20032;-74
2022/07/03 08:40:20;;;;;;;3.47;2.38;;;;;;;34.76;28.96;98218.34;5070266;28;20021;-74
2022/07/03 08:42:53;;;;;;;3.13;2.20;;;;;;;37.04;26.10;98222.53;5071653;28;20033;-74
2022/07/03 08:45:20;;;;;;;6.10;2.33;;;;;;;37.54;25.43;98227.09;5074382;28;20031;-74
2022/07/03 08:47:47;;;;;;;4.93;2.40;;;;;;;36.24;26.77;98219.34;5074403;28;20154;-74
2022/07/03 08:50:14;;;;;;;3.97;2.30;;;;;;;35.51;27.76;98212.00;5074202;28;20035;-72
2022/07/03 08:52:41;;;;;;;4.00;2.70;;;;;;;36.93;26.05;98220.06;5074006;28;20461;-74
2022/07/03 08:55:08;;;;;;;4.88;2.45;;;;;;;36.59;26.26;98222.22;5074088;28;20052;-76
2022/07/03 08:57:36;;;;;;;2.75;2.10;;;;;;;34.03;29.69;98207.72;5074293;28;20033;-74
2022/07/03 09:00:07;;;;;;;4.00;2.30;;;;;;;36.68;26.17;98208.81;5074283;28;20017;-73
2022/07/03 09:02:33;;;;;;;4.55;2.25;;;;;;;36.97;25.90;98209.31;5074671;28;20044;-75
2022/07/03 09:05:01;;;;;;;5.55;3.97;;;;;;;37.39;25.11;98203.22;5074013;28;20024;-74
2022/07/03 09:07:29;;;;;;;11.85;8.75;;;;;;;36.67;26.02;98198.66;5072933;28;20025;-74
2022/07/03 09:09:55;;;;;;;62.80;54.20;;;;;;;36.95;26.13;98196.78;5073652;28;20035;-74
2022/07/03 09:12:21;;;;;;;3.17;2.28;;;;;;;37.03;25.96;98188.78;5073795;28;20396;-75
2022/07/03 09:14:46;;;;;;;3.13;2.33;;;;;;;37.49;25.32;98187.75;5073648;28;20036;-75
2022/07/03 09:17:11;;;;;;;3.00;2.63;;;;;;;36.12;27.35;98188.03;5073581;28;20460;-74
2022/07/03 09:19:48;;;;;;;4.68;2.53;;;;;;;36.66;27.42;98182.00;5073550;28;20072;-74
2022/07/03 09:22:29;;;;;;;5.13;2.50;;;;;;;36.28;28.49;98188.63;5073604;28;20139;-75
2022/07/03 09:25:05;;;;;;;4.50;2.60;;;;;;;34.63;30.92;98184.19;5073727;28;20047;-76
2022/07/03 09:27:30;;;;;;;3.63;2.70;;;;;;;35.18;30.18;98174.41;5073462;28;20040;-74
2022/07/03 09:30:02;;;;;;;3.25;2.42;;;;;;;36.27;28.27;98184.22;5073790;28;20033;-74
2022/07/03 09:32:49;;;;;;;5.15;2.90;;;;;;;36.76;27.89;98183.66;5074280;28;20115;-73
2022/07/03 09:35:14;;;;;;;3.08;2.33;;;;;;;35.17;29.91;98175.69;5073321;28;20032;-76
2022/07/03 09:37:56;;;;;;;4.53;2.72;;;;;;;37.83;27.08;98189.59;5073292;28;20025;-75
2022/07/03 09:40:24;;;;;;;5.03;2.58;;;;;;;38.89;25.46;98185.72;5073383;28;20030;-75
2022/07/03 09:43:04;;;;;;;3.53;2.80;;;;;;;38.47;25.40;98181.94;5073332;28;20507;-77
2022/07/03 09:45:48;;;;;;;3.63;2.60;;;;;;;37.29;27.05;98185.25;5073342;28;20029;-75
2022/07/03 09:48:25;;;;;;;3.33;2.90;;;;;;;37.11;27.20;98168.03;5073276;28;20040;-75
2022/07/03 09:51:15;;;;;;;3.92;2.65;;;;;;;37.11;27.72;98172.94;5072342;28;20162;-73
2022/07/03 09:53:54;;;;;;;5.47;2.63;;;;;;;36.83;28.56;98164.22;5072317;28;20040;-73
2022/07/03 09:56:21;;;;;;;6.05;2.70;;;;;;;36.87;28.46;98164.84;5073273;28;20075;-73
2022/07/03 09:59:09;;;;;;;3.45;2.75;;;;;;;36.79;28.39;98162.75;5073251;28;20193;-76
2022/07/03 10:01:43;;;;;;;6.45;2.83;;;;;;;36.99;27.95;98160.38;5073122;28;20093;-75
2022/07/03 10:04:19;;;;;;;3.25;2.50;;;;;;;36.12;28.69;98159.53;5073551;28;20024;-74
2022/07/03 10:06:56;;;;;;;5.88;2.80;;;;;;;34.46;31.60;98154.19;5072766;28;20068;-74
2022/07/03 10:09:26;;;;;;;9.43;2.80;;;;;;;33.16;33.08;98147.84;5072832;28;20487;-74
2022/07/03 10:11:53;;;;;;;6.25;3.00;;;;;;;35.16;30.64;98145.63;5072865;28;20459;-73
2022/07/03 10:14:21;;;;;;;5.00;2.90;;;;;;;34.71;31.07;98142.91;5072912;28;20108;-75
2022/07/03 10:16:48;;;;;;;5.00;2.90;;;;;;;34.91;30.67;98142.72;5072802;28;20119;-73
2022/07/03 10:19:21;;;;;;;5.78;3.25;;;;;;;34.75;31.49;98143.63;5072388;28;20060;-73
2022/07/03 10:21:51;;;;;;;4.25;2.90;;;;;;;35.55;29.91;98138.66;5072363;28;20036;-74
2022/07/03 10:24:17;;;;;;;5.13;2.83;;;;;;;36.44;28.37;98147.75;5072551;28;20024;-74
2022/07/03 10:26:44;;;;;;;5.30;2.72;;;;;;;35.74;29.77;98134.78;5072797;28;20020;-73
2022/07/03 10:29:15;;;;;;;6.95;3.05;;;;;;;36.08;29.04;98130.34;5073687;28;20388;-74
2022/07/03 10:31:43;;;;;;;4.35;2.50;;;;;;;34.62;31.38;98131.41;5073425;28;20132;-75
2022/07/03 10:34:10;;;;;;;5.28;2.58;;;;;;;32.67;34.31;98117.78;5072571;28;20028;-74
2022/07/03 10:36:37;;;;;;;4.03;2.70;;;;;;;31.45;37.08;98120.47;5072105;28;20032;-73
2022/07/03 10:39:07;;;;;;;6.47;3.05;;;;;;;30.95;37.83;98117.63;5072177;28;20028;-74
2022/07/03 10:44:46;;;;;;;5.85;2.92;;;;;;;31.25;37.36;98122.44;5072183;28;20085;-74
2022/07/03 10:47:39;;;;;;;4.57;2.90;;;;;;;31.11;37.67;98111.34;5071722;28;20025;-74
2022/07/03 10:50:13;;;;;;;8.15;3.35;;;;;;;31.03;38.21;98107.03;5071818;28;20507;-74
2022/07/03 10:52:40;;;;;;;4.38;2.85;;;;;;;30.14;39.83;98098.91;5072182;28;20033;-74
2022/07/03 10:55:07;;;;;;;4.60;2.85;;;;;;;29.50;41.14;98105.22;5072345;28;20174;-74
2022/07/03 10:57:34;;;;;;;5.32;2.90;;;;;;;29.98;40.58;98099.50;5072363;28;20060;-73
2022/07/03 11:00:01;;;;;;;3.95;3.00;;;;;;;30.37;39.79;98101.84;5071850;28;20055;-74
2022/07/03 11:02:36;;;;;;;3.80;3.00;;;;;;;30.80;38.96;98102.09;5071806;28;20020;-74
2022/07/03 11:05:02;;;;;;;5.13;3.05;;;;;;;31.09;38.15;98108.94;5069536;28;20480;-74
2022/07/03 11:07:33;;;;;;;6.47;3.30;;;;;;;31.04;38.51;98102.97;5071138;28;20032;-74
2022/07/03 11:10:10;;;;;;;4.30;3.00;;;;;;;30.88;38.79;98108.44;5071529;28;20024;-74
2022/07/03 11:13:01;;;;;;;5.22;2.95;;;;;;;31.32;37.78;98111.00;5071335;28;20075;-74
2022/07/03 11:15:28;;;;;;;7.00;3.00;;;;;;;31.51;37.88;98101.00;5069719;28;20063;-75
2022/07/03 11:18:05;;;;;;;4.03;2.92;;;;;;;31.17;38.45;98098.34;5071299;28;20086;-73
2022/07/03 11:20:53;;;;;;;5.25;3.00;;;;;;;31.29;38.24;98097.72;5071417;28;20094;-75
2022/07/03 11:23:28;;;;;;;4.10;2.70;;;;;;;31.01;39.12;98089.72;5069876;28;20051;-73
2022/07/03 11:25:58;;;;;;;4.25;2.60;;;;;;;31.13;38.77;98098.38;5071128;28;20429;-75
2022/07/03 11:28:32;;;;;;;5.43;2.88;;;;;;;31.16;38.83;98088.25;5070679;28;20028;-73
2022/07/03 11:31:18;;;;;;;3.88;3.40;;;;;;;31.31;38.00;98078.28;5071631;28;20016;-74
2022/07/03 11:33:53;;;;;;;4.20;3.17;;;;;;;31.09;38.45;98074.22;5070203;28;20545;-73
2022/07/03 11:36:20;;;;;;;;;;;;;;;31.39;37.78;98065.59;5071401;28;20024;-73
2022/07/03 11:38:53;;;;;;;5.85;3.05;;;;;;;31.65;37.49;98067.59;5070690;28;20302;-74
2022/07/03 11:41:18;;;;;;;4.60;2.85;;;;;;;31.86;37.30;98060.72;5070793;28;20033;-74
2022/07/03 11:43:48;;;;;;;5.15;2.90;;;;;;;31.76;37.52;98056.84;5070708;28;20039;-76
2022/07/03 11:46:24;;;;;;;5.82;3.10;;;;;;;31.73;37.66;98060.56;5070728;28;20503;-76
2022/07/03 11:48:49;;;;;;;6.15;3.22;;;;;;;31.20;38.70;98063.53;5069256;28;20035;-74
2022/07/03 11:51:15;;;;;;;4.05;2.80;;;;;;;31.13;38.77;98047.50;5071005;28;20058;-74